Time;durP1;ratioP1;P1;durP2;ratioP2;P2;SDS_P1;SDS_P2;PMS_P1;PMS_P2;Temp;Humidity;BMP_temperature;BMP_pressure;BME280_temperature;BME280_humidity;BME280_pressure;Samples;Min_cycle;Max_cycle;Signal;HPM_P1;HPM_P2
2023/08/20 00:01:01;;;;;;;10.02;7.32;;;;;;;;;;4896322;29;20029;-64
2023/08/20 00:03:26;;;;;;;10.40;7.40;;;;;;;;;;4897797;29;20489;-65
2023/08/20 00:05:52;;;;;;;12.07;6.88;;;;;;;;;;4897677;29;20032;-65
2023/08/20 00:08:18;;;;;;;11.77;7.03;;;;;;;;;;4896873;29;20039;-65
2023/08/20 00:10:44;;;;;;;12.68;7.05;;;;;;;;;;4897685;29;20055;-65
2023/08/20 00:13:09;;;;;;;11.85;7.38;;;;;;;;;;4895853;29;20028;-65
2023/08/20 00:15:35;;;;;;;8.85;6.75;;;;;;;;;;4895871;29;20470;-65
2023/08/20 00:18:03;;;;;;;10.95;6.88;;;;;;;;;;4896733;29;20506;-66
2023/08/20 00:20:29;;;;;;;10.50;6.55;;;;;;;;;;4897358;29;20040;-65
2023/08/20 00:22:55;;;;;;;10.77;6.07;;;;;;;;;;4897045;29;20028;-66
2023/08/20 00:25:20;;;;;;;9.63;7.35;;;;;;;;;;4895245;29;20043;-65
2023/08/20 00:27:46;;;;;;;10.85;6.97;;;;;;;;;;4895910;29;20510;-65
2023/08/20 00:30:12;;;;;;;11.23;7.40;;;;;;;;;;4896248;29;20037;-65
2023/08/20 00:32:43;;;;;;;11.77;7.70;;;;;;;;;;4897114;29;20037;-65
2023/08/20 00:35:40;;;;;;;10.65;7.32;;;;;;;;;;4896284;29;20462;-65
2023/08/20 00:38:06;;;;;;;12.35;7.50;;;;;;;;;;4896321;29;20064;-65
2023/08/20 00:40:32;;;;;;;9.48;7.22;;;;;;;;;;4895198;29;20460;-65
2023/08/20 00:42:57;;;;;;;12.68;7.45;;;;;;;;;;4896621;29;20059;-65
2023/08/20 00:45:24;;;;;;;12.32;7.20;;;;;;;;;;4893958;29;20043;-65
2023/08/20 00:47:50;;;;;;;11.32;7.15;;;;;;;;;;4896921;29;20119;-65
2023/08/20 00:50:16;;;;;;;11.30;7.30;;;;;;;;;;4896143;29;20112;-65
2023/08/20 00:52:42;;;;;;;13.02;7.65;;;;;;;;;;4897195;29;20088;-65
2023/08/20 00:55:09;;;;;;;12.68;7.40;;;;;;;;;;4895630;29;20032;-65
2023/08/20 00:57:36;;;;;;;12.45;7.90;;;;;;;;;;4896712;29;20075;-65
2023/08/20 01:00:06;;;;;;;14.57;8.35;;;;;;;;;;4894278;29;20041;-66
2023/08/20 01:02:32;;;;;;;13.40;8.73;;;;;;;;;;4879929;29;20040;-65
2023/08/20 01:04:59;;;;;;;16.58;9.50;;;;;;;;;;4896489;29;20040;-66
2023/08/20 01:07:31;;;;;;;15.98;9.27;;;;;;;;;;4895964;29;20040;-65
2023/08/20 01:09:59;;;;;;;14.15;9.18;;;;;;;;;;4896108;29;20115;-65
2023/08/20 01:12:24;;;;;;;11.57;8.10;;;;;;;;;;4895789;29;20037;-66
2023/08/20 01:14:50;;;;;;;12.90;8.48;;;;;;;;;;4895288;29;20405;-64
2023/08/20 01:17:15;;;;;;;13.18;8.10;;;;;;;;;;4895635;29;20048;-65
2023/08/20 01:19:41;;;;;;;13.40;8.60;;;;;;;;;;4896516;29;20470;-65
2023/08/20 01:22:24;;;;;;;15.05;9.20;;;;;;;;;;4879134;29;20036;-66
2023/08/20 01:25:25;;;;;;;14.07;9.35;;;;;;;;;;4896572;29;20430;-65
2023/08/20 01:28:13;;;;;;;16.90;9.45;;;;;;;;;;4858802;29;20458;-64
2023/08/20 01:30:39;;;;;;;17.70;10.18;;;;;;;;;;4895405;29;20443;-65
2023/08/20 01:33:07;;;;;;;15.13;10.38;;;;;;;;;;4894718;29;20434;-66
2023/08/20 01:35:32;;;;;;;15.25;10.15;;;;;;;;;;4897441;29;20465;-66
2023/08/20 01:37:57;;;;;;;17.83;10.48;;;;;;;;;;4883729;29;20056;-65
2023/08/20 01:40:23;;;;;;;17.95;10.70;;;;;;;;;;4899539;29;20103;-65
2023/08/20 01:42:48;;;;;;;15.68;10.70;;;;;;;;;;4900344;29;20036;-64
2023/08/20 01:45:14;;;;;;;20.20;12.40;;;;;;;;;;4897583;29;20040;-65
2023/08/20 01:47:39;;;;;;;20.75;12.93;;;;;;;;;;4900254;29;20059;-65
2023/08/20 01:50:05;;;;;;;21.48;13.63;;;;;;;;;;4899661;29;20451;-66
2023/08/20 01:52:30;;;;;;;21.27;13.75;;;;;;;;;;4899364;29;20036;-65
2023/08/20 01:54:56;;;;;;;23.52;12.73;;;;;;;;;;4899766;29;20040;-65
2023/08/20 01:57:21;;;;;;;24.25;13.68;;;;;;;;;;4898214;29;20036;-65
2023/08/20 01:59:47;;;;;;;21.48;13.98;;;;;;;;;;4916405;29;20513;-65
2023/08/20 02:02:13;;;;;;;21.98;13.88;;;;;;;;;;4918084;29;20043;-66
2023/08/20 02:04:38;;;;;;;24.00;13.05;;;;;;;;;;4918842;29;20028;-65
2023/08/20 02:07:04;;;;;;;23.58;13.60;;;;;;;;;;4892129;29;20383;-66
2023/08/20 02:09:29;;;;;;;22.63;14.75;;;;;;;;;;4880544;29;20037;-65
2023/08/20 02:11:55;;;;;;;32.55;18.55;;;;;;;;;;4891107;29;20450;-65
2023/08/20 02:14:20;;;;;;;33.55;19.02;;;;;;;;;;4899043;29;20032;-65
2023/08/20 02:16:48;;;;;;;33.55;19.63;;;;;;;;;;4882579;29;20036;-65
2023/08/20 02:19:14;;;;;;;33.38;19.88;;;;;;;;;;4882077;29;20124;-65
2023/08/20 02:21:42;;;;;;;36.15;20.08;;;;;;;;;;4898062;29;20060;-65
2023/08/20 02:24:08;;;;;;;40.97;22.75;;;;;;;;;;4880401;29;20048;-66
2023/08/20 02:26:33;;;;;;;44.33;23.45;;;;;;;;;;4880712;29;20124;-66
2023/08/20 02:28:58;;;;;;;47.10;24.08;;;;;;;;;;4880826;29;20037;-65
2023/08/20 02:31:24;;;;;;;47.33;24.00;;;;;;;;;;4879998;29;20108;-65
2023/08/20 02:33:49;;;;;;;48.75;25.25;;;;;;;;;;4880766;29;20482;-65
2023/08/20 02:36:15;;;;;;;48.78;25.63;;;;;;;;;;4887020;29;20048;-65
2023/08/20 02:38:40;;;;;;;45.75;24.35;;;;;;;;;;4899527;29;20032;-65
2023/08/20 02:41:05;;;;;;;44.58;25.00;;;;;;;;;;4898304;29;20127;-66
2023/08/20 02:43:31;;;;;;;47.10;25.42;;;;;;;;;;4898433;29;20036;-65
2023/08/20 02:45:56;;;;;;;47.92;25.00;;;;;;;;;;4898025;29;20326;-65
2023/08/20 02:48:26;;;;;;;46.83;24.05;;;;;;;;;;4898030;29;20127;-65
2023/08/20 02:50:55;;;;;;;44.63;24.73;;;;;;;;;;4899459;29;20199;-65
2023/08/20 02:53:21;;;;;;;46.33;23.77;;;;;;;;;;4898339;29;20470;-65
2023/08/20 02:55:47;;;;;;;43.70;24.25;;;;;;;;;;4876451;29;20048;-65
2023/08/20 02:58:12;;;;;;;42.70;24.13;;;;;;;;;;4897893;29;20044;-65
2023/08/20 03:00:38;;;;;;;42.58;22.92;;;;;;;;;;4899158;29;20037;-65
2023/08/20 03:03:07;;;;;;;46.58;23.55;;;;;;;;;;4898946;29;20025;-64
2023/08/20 03:05:33;;;;;;;40.55;22.48;;;;;;;;;;4877360;29;20036;-65
2023/08/20 03:07:58;;;;;;;42.70;22.10;;;;;;;;;;4893945;29;20112;-65
2023/08/20 03:10:24;;;;;;;45.00;23.40;;;;;;;;;;4880583;29;20092;-65
2023/08/20 03:12:49;;;;;;;40.95;22.65;;;;;;;;;;4899048;29;20455;-65
2023/08/20 03:15:14;;;;;;;45.25;24.02;;;;;;;;;;4897984;29;20458;-66
2023/08/20 03:17:40;;;;;;;45.25;23.90;;;;;;;;;;4898486;29;20032;-65
2023/08/20 03:20:06;;;;;;;51.47;25.02;;;;;;;;;;4898404;29;20036;-65
2023/08/20 03:22:32;;;;;;;48.00;24.23;;;;;;;;;;4896655;29;20073;-65
2023/08/20 03:24:57;;;;;;;52.47;24.45;;;;;;;;;;4879038;29;20443;-65
2023/08/20 03:27:23;;;;;;;54.47;25.85;;;;;;;;;;4880608;29;20033;-65
2023/08/20 03:29:48;;;;;;;49.40;24.98;;;;;;;;;;4898497;29;20115;-65
2023/08/20 03:32:14;;;;;;;47.50;25.17;;;;;;;;;;4897384;29;20497;-65
2023/08/20 03:34:39;;;;;;;50.00;25.08;;;;;;;;;;4897539;29;20096;-65
2023/08/20 03:37:05;;;;;;;61.17;26.65;;;;;;;;;;4896751;29;20032;-65
2023/08/20 03:39:31;;;;;;;48.55;24.98;;;;;;;;;;4896840;29;20657;-65
2023/08/20 03:41:57;;;;;;;50.65;24.35;;;;;;;;;;4898238;29;20028;-65
2023/08/20 03:44:23;;;;;;;44.30;23.10;;;;;;;;;;4896943;29;20541;-65
2023/08/20 03:46:48;;;;;;;46.25;23.25;;;;;;;;;;4898169;29;20040;-65
2023/08/20 03:49:13;;;;;;;48.33;24.08;;;;;;;;;;4897142;29;20490;-66
2023/08/20 03:51:39;;;;;;;47.08;24.23;;;;;;;;;;4896699;29;20040;-65
2023/08/20 03:54:04;;;;;;;63.70;27.10;;;;;;;;;;4897680;29;20446;-65
2023/08/20 03:56:29;;;;;;;56.13;25.42;;;;;;;;;;4894362;29;20047;-65
2023/08/20 03:58:55;;;;;;;60.95;28.75;;;;;;;;;;4896483;29;20044;-65
2023/08/20 04:01:21;;;;;;;63.78;27.50;;;;;;;;;;4897093;29;20041;-65
2023/08/20 04:03:48;;;;;;;67.10;28.92;;;;;;;;;;4898927;29;20033;-65
2023/08/20 04:06:13;;;;;;;65.70;30.00;;;;;;;;;;4899225;29;20106;-66
2023/08/20 04:08:42;;;;;;;57.47;27.80;;;;;;;;;;4898380;29;20040;-65
2023/08/20 04:11:08;;;;;;;63.65;28.38;;;;;;;;;;4897447;29;20020;-65
2023/08/20 04:13:33;;;;;;;67.13;29.92;;;;;;;;;;4896375;29;20121;-65
2023/08/20 04:15:59;;;;;;;73.68;29.70;;;;;;;;;;4895804;29;20477;-65
2023/08/20 04:18:24;;;;;;;87.03;32.05;;;;;;;;;;4896781;29;20032;-65
2023/08/20 04:20:52;;;;;;;84.13;31.52;;;;;;;;;;4896458;29;20115;-66
2023/08/20 04:23:18;;;;;;;74.70;30.20;;;;;;;;;;4896692;29;20032;-65
2023/08/20 04:25:44;;;;;;;97.63;33.47;;;;;;;;;;4880548;29;20037;-65
2023/08/20 04:28:10;;;;;;;103.90;33.85;;;;;;;;;;4896000;29;20435;-65
2023/08/20 04:30:36;;;;;;;116.75;35.33;;;;;;;;;;4896325;29;20036;-65
2023/08/20 04:33:01;;;;;;;115.53;37.08;;;;;;;;;;4880476;29;20044;-65
2023/08/20 04:35:27;;;;;;;123.07;36.85;;;;;;;;;;4893574;29;20155;-66
2023/08/20 04:37:52;;;;;;;140.20;38.08;;;;;;;;;;4897088;29;20463;-66
2023/08/20 04:40:18;;;;;;;153.10;38.58;;;;;;;;;;4896465;29;20028;-66
2023/08/20 04:42:43;;;;;;;166.23;38.67;;;;;;;;;;4897456;29;20024;-65
2023/08/20 04:45:10;;;;;;;161.07;39.17;;;;;;;;;;4895565;29;20433;-65
2023/08/20 04:47:35;;;;;;;217.80;42.00;;;;;;;;;;4894991;29;20037;-65
2023/08/20 04:50:01;;;;;;;190.23;41.50;;;;;;;;;;4895338;29;20035;-65
2023/08/20 04:52:26;;;;;;;205.68;39.85;;;;;;;;;;4896146;29;20476;-65
2023/08/20 04:54:52;;;;;;;225.57;42.35;;;;;;;;;;4894629;29;20036;-65
2023/08/20 04:57:17;;;;;;;201.85;39.20;;;;;;;;;;4895254;29;20047;-66
2023/08/20 04:59:46;;;;;;;251.93;39.83;;;;;;;;;;4896968;29;20064;-65
2023/08/20 05:02:12;;;;;;;183.57;40.33;;;;;;;;;;4896153;29;20127;-65
2023/08/20 05:04:38;;;;;;;173.48;39.22;;;;;;;;;;4895961;29;20040;-65
2023/08/20 05:07:03;;;;;;;161.23;38.53;;;;;;;;;;4896638;29;20028;-65
2023/08/20 05:09:29;;;;;;;300.15;41.78;;;;;;;;;;4895883;29;20032;-65
2023/08/20 05:11:54;;;;;;;292.52;40.50;;;;;;;;;;4895901;29;20116;-65
2023/08/20 05:14:20;;;;;;;298.08;39.08;;;;;;;;;;4894989;29;20072;-65
2023/08/20 05:16:45;;;;;;;254.55;38.67;;;;;;;;;;4896313;29;20055;-65
2023/08/20 05:19:11;;;;;;;161.32;37.10;;;;;;;;;;4895904;29;20028;-65
2023/08/20 05:21:36;;;;;;;235.88;39.45;;;;;;;;;;4879043;29;20190;-65
2023/08/20 05:24:02;;;;;;;268.50;41.13;;;;;;;;;;4896333;29;20060;-65
2023/08/20 05:26:27;;;;;;;152.48;36.53;;;;;;;;;;4894148;29;20065;-65
2023/08/20 05:28:52;;;;;;;168.48;37.88;;;;;;;;;;4896359;29;20039;-65
2023/08/20 05:31:18;;;;;;;119.25;37.05;;;;;;;;;;4896087;29;20566;-66
2023/08/20 05:33:43;;;;;;;123.60;37.63;;;;;;;;;;4878650;29;20032;-65
2023/08/20 05:36:09;;;;;;;159.55;37.28;;;;;;;;;;4895484;29;20040;-65
2023/08/20 05:38:34;;;;;;;118.15;34.70;;;;;;;;;;4895240;29;20035;-65
2023/08/20 05:41:00;;;;;;;180.05;38.45;;;;;;;;;;4896666;29;20041;-65
2023/08/20 05:43:25;;;;;;;149.27;37.50;;;;;;;;;;4895651;29;20032;-65
2023/08/20 05:45:50;;;;;;;137.52;38.50;;;;;;;;;;4896117;29;20033;-65
2023/08/20 05:48:16;;;;;;;244.88;42.20;;;;;;;;;;4896104;29;20489;-65
2023/08/20 05:50:44;;;;;;;152.00;38.90;;;;;;;;;;4895523;29;20032;-65
2023/08/20 05:53:12;;;;;;;157.32;40.40;;;;;;;;;;4895242;29;20042;-65
2023/08/20 05:55:39;;;;;;;140.30;40.92;;;;;;;;;;4876859;29;20039;-66
2023/08/20 05:58:04;;;;;;;170.32;39.15;;;;;;;;;;4894851;29;20063;-66
2023/08/20 06:00:29;;;;;;;189.48;39.90;;;;;;;;;;4878866;29;20366;-65
2023/08/20 06:02:55;;;;;;;122.25;37.10;;;;;;;;;;4895894;29;20036;-66
2023/08/20 06:05:20;;;;;;;174.77;37.85;;;;;;;;;;4895637;29;20029;-66
2023/08/20 06:07:45;;;;;;;206.85;38.83;;;;;;;;;;4879267;29;20390;-65
2023/08/20 06:10:11;;;;;;;122.22;38.10;;;;;;;;;;4878886;29;20032;-66
2023/08/20 06:12:37;;;;;;;119.25;36.22;;;;;;;;;;4876887;29;21936;-66
2023/08/20 06:15:02;;;;;;;104.15;35.17;;;;;;;;;;4895730;29;20042;-65
2023/08/20 06:17:28;;;;;;;108.78;34.92;;;;;;;;;;4878565;29;20115;-66
2023/08/20 06:19:53;;;;;;;102.80;35.08;;;;;;;;;;4896499;29;20037;-64
2023/08/20 06:22:19;;;;;;;102.97;35.40;;;;;;;;;;4881758;29;20036;-66
2023/08/20 06:24:44;;;;;;;128.32;35.30;;;;;;;;;;4899330;29;20172;-65
2023/08/20 06:27:10;;;;;;;102.97;34.47;;;;;;;;;;4900085;29;20036;-65
2023/08/20 06:29:36;;;;;;;96.88;33.67;;;;;;;;;;4900137;29;20039;-70
2023/08/20 06:32:01;;;;;;;83.28;32.72;;;;;;;;;;4899562;29;20458;-67
2023/08/20 06:34:27;;;;;;;71.65;31.90;;;;;;;;;;4898693;29;20032;-68
2023/08/20 06:36:53;;;;;;;74.32;32.88;;;;;;;;;;4899008;29;20032;-66
2023/08/20 06:39:19;;;;;;;76.88;33.10;;;;;;;;;;4899378;29;20442;-65
2023/08/20 06:41:45;;;;;;;78.88;33.10;;;;;;;;;;4898810;29;20036;-68
2023/08/20 06:44:10;;;;;;;86.72;33.83;;;;;;;;;;4882280;29;20027;-68
2023/08/20 06:46:36;;;;;;;70.72;32.65;;;;;;;;;;4898359;29;20478;-67
2023/08/20 06:49:02;;;;;;;79.80;33.75;;;;;;;;;;4899205;29;20032;-68
2023/08/20 06:51:28;;;;;;;74.45;33.10;;;;;;;;;;4898308;29;20033;-68
2023/08/20 06:53:54;;;;;;;91.25;35.35;;;;;;;;;;4898224;29;20367;-65
2023/08/20 06:56:20;;;;;;;81.28;35.35;;;;;;;;;;4898999;29;20045;-68
2023/08/20 06:58:46;;;;;;;76.32;32.35;;;;;;;;;;4897039;29;20048;-69
2023/08/20 07:01:12;;;;;;;70.90;32.85;;;;;;;;;;4898863;29;20037;-65
2023/08/20 07:03:42;;;;;;;70.95;33.00;;;;;;;;;;4898068;29;20029;-66
2023/08/20 07:06:14;;;;;;;73.97;33.85;;;;;;;;;;4898381;29;20067;-69
2023/08/20 07:08:40;;;;;;;68.60;33.83;;;;;;;;;;4896646;29;20028;-66
2023/08/20 07:11:06;;;;;;;64.93;31.50;;;;;;;;;;4898530;29;20115;-67
2023/08/20 07:13:31;;;;;;;58.22;30.15;;;;;;;;;;4879534;29;20124;-66
2023/08/20 07:15:57;;;;;;;53.28;28.83;;;;;;;;;;4898826;29;20119;-66
2023/08/20 07:18:22;;;;;;;58.42;31.67;;;;;;;;;;4880866;29;20040;-67
2023/08/20 07:20:47;;;;;;;52.08;29.90;;;;;;;;;;4897890;29;20029;-65
2023/08/20 07:23:13;;;;;;;52.95;29.52;;;;;;;;;;4898652;29;20132;-66
2023/08/20 07:25:40;;;;;;;51.90;29.73;;;;;;;;;;4879484;29;20529;-65
2023/08/20 07:28:06;;;;;;;53.40;29.83;;;;;;;;;;4898362;29;20462;-65
2023/08/20 07:30:32;;;;;;;48.20;28.17;;;;;;;;;;4897082;29;20169;-66
2023/08/20 07:32:57;;;;;;;48.40;28.05;;;;;;;;;;4897169;29;20119;-65
2023/08/20 07:35:23;;;;;;;46.58;27.45;;;;;;;;;;4880439;29;20040;-66
2023/08/20 07:37:49;;;;;;;58.08;30.92;;;;;;;;;;4896362;29;20081;-65
2023/08/20 07:40:14;;;;;;;52.78;29.67;;;;;;;;;;4897194;29;20040;-65
2023/08/20 07:42:40;;;;;;;50.33;30.38;;;;;;;;;;4897447;29;20471;-65
2023/08/20 07:45:07;;;;;;;49.88;29.77;;;;;;;;;;4896527;29;20171;-65
2023/08/20 07:47:33;;;;;;;50.45;30.13;;;;;;;;;;4897027;29;20033;-66
2023/08/20 07:49:58;;;;;;;50.88;30.00;;;;;;;;;;4898332;29;20093;-65
2023/08/20 07:52:24;;;;;;;46.58;28.75;;;;;;;;;;4897033;29;20046;-66
2023/08/20 07:54:49;;;;;;;43.25;28.58;;;;;;;;;;4895227;29;20478;-65
2023/08/20 07:57:15;;;;;;;48.90;28.98;;;;;;;;;;4881340;29;20028;-65
2023/08/20 07:59:40;;;;;;;44.92;28.05;;;;;;;;;;4899133;29;20048;-66
2023/08/20 08:02:05;;;;;;;51.42;29.25;;;;;;;;;;4897658;29;20040;-65
2023/08/20 08:04:31;;;;;;;47.63;28.80;;;;;;;;;;4880198;29;20066;-68
2023/08/20 08:06:56;;;;;;;43.70;28.83;;;;;;;;;;4880365;29;20037;-66
2023/08/20 08:09:27;;;;;;;44.67;29.20;;;;;;;;;;4897313;29;20513;-66
2023/08/20 08:11:52;;;;;;;;;;;;;;;;;;4897816;29;20044;-66
2023/08/20 08:14:18;;;;;;;51.40;29.98;;;;;;;;;;4880936;29;19915;-66
2023/08/20 08:16:45;;;;;;;48.58;29.80;;;;;;;;;;4889097;29;20250;-64
2023/08/20 08:19:10;;;;;;;48.72;29.45;;;;;;;;;;4888441;29;20060;-67
2023/08/20 08:21:36;;;;;;;48.88;30.13;;;;;;;;;;4895160;29;20032;-66
2023/08/20 08:24:02;;;;;;;49.78;29.35;;;;;;;;;;4892400;29;20036;-65
2023/08/20 08:26:27;;;;;;;45.42;28.75;;;;;;;;;;4879916;29;20488;-67
2023/08/20 08:28:53;;;;;;;48.60;30.05;;;;;;;;;;4897020;29;20052;-66
2023/08/20 08:31:18;;;;;;;47.55;29.38;;;;;;;;;;4898049;29;20393;-68
2023/08/20 08:33:43;;;;;;;48.78;29.83;;;;;;;;;;4898187;29;20044;-65
2023/08/20 08:36:09;;;;;;;44.90;27.95;;;;;;;;;;4898316;29;20093;-65
2023/08/20 08:38:36;;;;;;;48.22;30.38;;;;;;;;;;4898383;29;20036;-65
2023/08/20 08:41:03;;;;;;;47.38;29.73;;;;;;;;;;4899697;29;20466;-67
2023/08/20 08:43:31;;;;;;;49.47;30.08;;;;;;;;;;4888811;29;20080;-67
2023/08/20 08:45:57;;;;;;;45.50;27.85;;;;;;;;;;4896850;29;20140;-65
2023/08/20 08:48:23;;;;;;;42.97;26.42;;;;;;;;;;4877319;29;20125;-68
2023/08/20 08:51:02;;;;;;;42.30;27.42;;;;;;;;;;4896053;29;20532;-69
2023/08/20 08:53:30;;;;;;;38.60;24.30;;;;;;;;;;4896705;29;20032;-68
2023/08/20 08:59:04;;;;;;;39.30;26.63;;;;;;;;;;4877082;29;20057;-69
2023/08/20 09:01:34;;;;;;;37.67;25.00;;;;;;;;;;4896782;29;20032;-68
2023/08/20 09:03:59;;;;;;;;;;;;;;;;;;4896251;29;20039;-67
2023/08/20 09:06:25;;;;;;;31.65;22.02;;;;;;;;;;4897243;29;20006;-72
2023/08/20 09:09:03;;;;;;;33.78;21.90;;;;;;;;;;4895947;29;20925;-66
2023/08/20 09:11:37;;;;;;;25.65;17.83;;;;;;;;;;4893911;29;20044;-68
2023/08/20 09:14:03;;;;;;;24.23;16.67;;;;;;;;;;4879891;29;20048;-65
2023/08/20 09:16:31;;;;;;;25.42;16.90;;;;;;;;;;4887671;29;20045;-68
2023/08/20 09:18:59;;;;;;;23.80;17.40;;;;;;;;;;4896497;29;20041;-68
2023/08/20 09:21:30;;;;;;;19.15;13.25;;;;;;;;;;4896110;29;20101;-64
2023/08/20 09:24:00;;;;;;;21.55;15.23;;;;;;;;;;4896709;29;20039;-67
2023/08/20 09:26:25;;;;;;;17.67;12.77;;;;;;;;;;4896007;29;20032;-71
2023/08/20 09:28:54;;;;;;;15.20;11.15;;;;;;;;;;4894927;29;20036;-69
2023/08/20 09:31:19;;;;;;;14.80;11.25;;;;;;;;;;4896236;29;20029;-63
2023/08/20 09:33:52;;;;;;;14.20;10.32;;;;;;;;;;4889212;29;20040;-67
2023/08/20 09:36:18;;;;;;;9.55;6.45;;;;;;;;;;4894502;29;20478;-67
2023/08/20 09:38:43;;;;;;;9.27;5.97;;;;;;;;;;4895564;29;20092;-67
2023/08/20 09:44:12;;;;;;;11.43;8.20;;;;;;;;;;4868545;29;20052;-67
2023/08/20 09:46:39;;;;;;;13.43;8.38;;;;;;;;;;4888582;29;20077;-67
2023/08/20 09:49:05;;;;;;;10.60;8.38;;;;;;;;;;4876407;29;20037;-67
2023/08/20 09:51:33;;;;;;;13.50;8.48;;;;;;;;;;4884925;29;20032;-67
2023/08/20 09:54:33;;;;;;;11.90;8.48;;;;;;;;;;4896238;29;20067;-67
2023/08/20 09:57:01;;;;;;;15.25;9.23;;;;;;;;;;4863476;29;20188;-67
2023/08/20 09:59:27;;;;;;;11.70;8.50;;;;;;;;;;4893300;29;20060;-66
2023/08/20 10:01:54;;;;;;;13.30;9.27;;;;;;;;;;4903197;29;20233;-66
2023/08/20 10:04:21;;;;;;;13.82;9.45;;;;;;;;;;4919554;29;20465;-66
2023/08/20 10:06:47;;;;;;;12.93;9.35;;;;;;;;;;4916576;29;20470;-67
2023/08/20 10:09:14;;;;;;;14.27;9.15;;;;;;;;;;4919111;29;20462;-66
2023/08/20 10:11:42;;;;;;;9.50;7.90;;;;;;;;;;4915619;29;20047;-63
2023/08/20 10:14:08;;;;;;;14.20;9.77;;;;;;;;;;4916971;29;20392;-63
2023/08/20 10:16:33;;;;;;;11.40;9.18;;;;;;;;;;4917659;29;20496;-65
2023/08/20 10:19:03;;;;;;;18.02;13.13;;;;;;;;;;4918449;29;20059;-69
2023/08/20 10:21:29;;;;;;;17.85;12.70;;;;;;;;;;4919176;29;20059;-69
2023/08/20 10:23:55;;;;;;;18.27;12.63;;;;;;;;;;4917827;29;20032;-67
2023/08/20 10:26:21;;;;;;;20.35;12.60;;;;;;;;;;4917040;29;20502;-67
2023/08/20 10:28:47;;;;;;;16.40;11.95;;;;;;;;;;4912741;29;20032;-66
2023/08/20 10:31:15;;;;;;;18.50;12.98;;;;;;;;;;4918229;29;20036;-66
2023/08/20 10:33:47;;;;;;;17.73;13.25;;;;;;;;;;4917207;29;20429;-65
2023/08/20 10:36:18;;;;;;;16.48;12.70;;;;;;;;;;4916579;29;20048;-67
2023/08/20 10:38:47;;;;;;;18.33;12.43;;;;;;;;;;4915758;29;20565;-67
2023/08/20 10:41:12;;;;;;;17.88;13.15;;;;;;;;;;4918236;29;20034;-66
2023/08/20 10:43:48;;;;;;;18.25;13.40;;;;;;;;;;4915490;29;20036;-66
2023/08/20 10:46:14;;;;;;;19.98;13.85;;;;;;;;;;4918538;29;20040;-66
2023/08/20 10:48:40;;;;;;;17.90;13.23;;;;;;;;;;4917436;29;20040;-66
2023/08/20 10:51:14;;;;;;;18.27;13.27;;;;;;;;;;4915877;29;20120;-65
2023/08/20 10:53:41;;;;;;;16.35;13.32;;;;;;;;;;4913175;29;20036;-66
2023/08/20 10:56:15;;;;;;;18.00;12.68;;;;;;;;;;4897378;29;20036;-67
2023/08/20 10:58:42;;;;;;;17.80;14.77;;;;;;;;;;4904550;29;20071;-65
2023/08/20 11:01:17;;;;;;;20.33;15.43;;;;;;;;;;4897376;29;20450;-66
2023/08/20 11:03:44;;;;;;;16.73;13.32;;;;;;;;;;4897883;29;20047;-65
2023/08/20 11:06:10;;;;;;;16.08;12.90;;;;;;;;;;4898274;29;20033;-64
2023/08/20 11:08:37;;;;;;;18.40;13.75;;;;;;;;;;4897913;29;20040;-66
2023/08/20 11:11:03;;;;;;;15.18;11.70;;;;;;;;;;4892277;29;20031;-65
2023/08/20 11:13:29;;;;;;;17.63;13.40;;;;;;;;;;4897753;29;20107;-66
2023/08/20 11:15:55;;;;;;;15.98;11.77;;;;;;;;;;4896604;29;20044;-66
2023/08/20 11:18:20;;;;;;;18.50;14.43;;;;;;;;;;4898662;29;20092;-65
2023/08/20 11:20:46;;;;;;;17.77;15.02;;;;;;;;;;4897239;29;20084;-65
2023/08/20 11:23:16;;;;;;;18.85;15.32;;;;;;;;;;4881705;29;20135;-65
2023/08/20 11:25:43;;;;;;;19.15;15.15;;;;;;;;;;4896822;29;20111;-65
2023/08/20 11:28:08;;;;;;;17.88;14.40;;;;;;;;;;4898153;29;20047;-65
2023/08/20 11:30:34;;;;;;;16.02;13.95;;;;;;;;;;4897858;29;20040;-64
2023/08/20 11:33:00;;;;;;;16.50;14.00;;;;;;;;;;4896680;29;20036;-65
2023/08/20 11:35:25;;;;;;;14.13;11.48;;;;;;;;;;4907978;29;20095;-65
2023/08/20 11:37:52;;;;;;;13.88;11.68;;;;;;;;;;4898898;29;20040;-65
2023/08/20 11:40:20;;;;;;;12.05;10.57;;;;;;;;;;4898080;29;20146;-67
2023/08/20 11:42:46;;;;;;;11.38;10.02;;;;;;;;;;4897334;29;20040;-67
2023/08/20 11:45:15;;;;;;;14.85;12.05;;;;;;;;;;4904746;29;20036;-65
2023/08/20 11:47:41;;;;;;;12.35;10.82;;;;;;;;;;4899940;29;20025;-64
2023/08/20 11:50:08;;;;;;;12.00;9.63;;;;;;;;;;4883592;29;20142;-66
2023/08/20 11:52:35;;;;;;;10.85;8.93;;;;;;;;;;4896017;29;20078;-65
2023/08/20 11:55:01;;;;;;;11.25;9.73;;;;;;;;;;4896915;29;20059;-65
2023/08/20 11:57:28;;;;;;;9.85;8.85;;;;;;;;;;4881203;29;20119;-66
2023/08/20 11:59:54;;;;;;;9.75;8.70;;;;;;;;;;4896840;29;20100;-65
2023/08/20 12:02:27;;;;;;;9.20;8.20;;;;;;;;;;4914426;29;20032;-65
2023/08/20 12:04:56;;;;;;;9.27;7.22;;;;;;;;;;4908161;29;20064;-65
2023/08/20 12:07:26;;;;;;;8.40;6.90;;;;;;;;;;4894796;29;20422;-65
2023/08/20 12:09:53;;;;;;;10.77;7.60;;;;;;;;;;4902784;29;20052;-65
2023/08/20 12:12:22;;;;;;;8.85;7.50;;;;;;;;;;4897284;29;20331;-65
2023/08/20 12:14:48;;;;;;;10.73;8.03;;;;;;;;;;4896590;29;20032;-66
2023/08/20 12:17:21;;;;;;;9.32;7.85;;;;;;;;;;4908752;29;20119;-65
2023/08/20 12:19:46;;;;;;;9.77;8.20;;;;;;;;;;4896390;29;20036;-65
2023/08/20 12:22:12;;;;;;;9.43;7.65;;;;;;;;;;4894695;29;20213;-66
2023/08/20 12:24:38;;;;;;;10.82;8.55;;;;;;;;;;4895596;29;20058;-66
2023/08/20 12:27:03;;;;;;;10.38;8.40;;;;;;;;;;4897029;29;20036;-66
2023/08/20 12:29:29;;;;;;;11.40;9.40;;;;;;;;;;4896998;29;20040;-67
2023/08/20 12:31:54;;;;;;;10.48;8.93;;;;;;;;;;4896065;29;20460;-66
2023/08/20 12:34:25;;;;;;;10.52;9.20;;;;;;;;;;4897227;29;20489;-66
2023/08/20 12:36:50;;;;;;;10.27;9.05;;;;;;;;;;4895696;29;20039;-66
2023/08/20 12:39:16;;;;;;;10.05;8.30;;;;;;;;;;4895014;29;20033;-66
2023/08/20 12:41:41;;;;;;;8.93;7.70;;;;;;;;;;4896269;29;20037;-61
2023/08/20 12:44:07;;;;;;;10.90;7.72;;;;;;;;;;4894275;29;20465;-61
2023/08/20 12:46:35;;;;;;;10.90;7.38;;;;;;;;;;4896632;29;20037;-62
2023/08/20 12:49:01;;;;;;;12.50;7.38;;;;;;;;;;4883665;29;20039;-63
2023/08/20 12:51:27;;;;;;;11.20;7.50;;;;;;;;;;4875936;29;20033;-62
2023/08/20 12:53:52;;;;;;;10.23;7.03;;;;;;;;;;4877359;29;20033;-62
2023/08/20 12:56:17;;;;;;;7.93;6.93;;;;;;;;;;4877691;29;20102;-63
2023/08/20 12:58:44;;;;;;;6.97;6.28;;;;;;;;;;4894746;29;20388;-63
2023/08/20 13:01:09;;;;;;;8.20;7.20;;;;;;;;;;4895736;29;20493;-61
2023/08/20 13:03:35;;;;;;;8.05;6.45;;;;;;;;;;4896757;29;20040;-62
2023/08/20 13:06:01;;;;;;;7.85;5.78;;;;;;;;;;4895748;29;20024;-63
2023/08/20 13:08:27;;;;;;;8.52;6.00;;;;;;;;;;4896686;29;20032;-63
2023/08/20 13:10:56;;;;;;;6.72;5.50;;;;;;;;;;4895809;29;20088;-62
2023/08/20 13:13:22;;;;;;;;;;;;;;;;;;4897082;29;20040;-60
2023/08/20 13:15:49;;;;;;;6.45;5.70;;;;;;;;;;4893944;29;19990;-62
2023/08/20 13:18:15;;;;;;;9.00;5.85;;;;;;;;;;4896561;29;20045;-61
2023/08/20 13:20:42;;;;;;;7.20;5.63;;;;;;;;;;4895006;29;20097;-63
2023/08/20 13:23:07;;;;;;;8.07;6.20;;;;;;;;;;4896360;29;20108;-61
2023/08/20 13:25:32;;;;;;;7.40;6.00;;;;;;;;;;4896297;29;20037;-62
2023/08/20 13:27:58;;;;;;;9.88;6.90;;;;;;;;;;4895743;29;20052;-63
2023/08/20 13:30:23;;;;;;;6.93;4.70;;;;;;;;;;4896475;29;20075;-61
2023/08/20 13:32:49;;;;;;;9.75;3.80;;;;;;;;;;4882237;29;20037;-62
2023/08/20 13:35:14;;;;;;;6.20;2.92;;;;;;;;;;4900495;29;20036;-61
2023/08/20 13:37:40;;;;;;;6.32;3.13;;;;;;;;;;4882913;29;20461;-63
2023/08/20 13:40:09;;;;;;;5.20;2.85;;;;;;;;;;4898847;29;20059;-61
2023/08/20 13:42:34;;;;;;;6.20;3.08;;;;;;;;;;4883424;29;20081;-61
2023/08/20 13:45:00;;;;;;;5.18;2.65;;;;;;;;;;4899450;29;20868;-61
2023/08/20 13:47:25;;;;;;;6.40;2.80;;;;;;;;;;4880149;29;20033;-62
2023/08/20 13:49:50;;;;;;;8.20;3.33;;;;;;;;;;4888604;29;20057;-62
2023/08/20 13:52:16;;;;;;;4.90;3.10;;;;;;;;;;4899883;29;20032;-62
2023/08/20 13:54:41;;;;;;;6.20;3.00;;;;;;;;;;4882080;29;20085;-64
2023/08/20 13:57:07;;;;;;;5.80;2.60;;;;;;;;;;4899385;29;20033;-62
2023/08/20 13:59:32;;;;;;;5.85;2.53;;;;;;;;;;4886066;29;20044;-61
2023/08/20 14:01:58;;;;;;;4.90;2.90;;;;;;;;;;4880247;29;20089;-62
2023/08/20 14:04:24;;;;;;;6.13;2.90;;;;;;;;;;4893298;29;20038;-62
2023/08/20 14:06:49;;;;;;;5.38;2.65;;;;;;;;;;4917598;29;20036;-62
2023/08/20 14:09:17;;;;;;;5.57;2.70;;;;;;;;;;4903017;29;20038;-63
2023/08/20 14:11:42;;;;;;;5.30;2.60;;;;;;;;;;4899465;29;20032;-64
2023/08/20 14:14:08;;;;;;;5.20;2.67;;;;;;;;;;4882380;29;20040;-62
2023/08/20 14:16:33;;;;;;;6.28;2.60;;;;;;;;;;4883111;29;20120;-62
2023/08/20 14:18:58;;;;;;;5.25;2.47;;;;;;;;;;4899609;29;20111;-63
2023/08/20 14:21:24;;;;;;;6.03;3.33;;;;;;;;;;4899689;29;20037;-63
2023/08/20 14:23:49;;;;;;;6.93;3.03;;;;;;;;;;4900144;29;20481;-63
2023/08/20 14:26:15;;;;;;;6.75;2.70;;;;;;;;;;4885627;29;20036;-62